Latest Weather Observations for Coonabarabran Airport

IDN60801

Issued at 11:52 pm EDT Friday 15 November 2019 (issued every 10 minutes, with the page automatically refreshed every 10 minutes)

About weather observations | Map of weather stations | Latest weather observations for NSW | Other Formats
Station Details ID: 064017 Name: COONABARABRAN AIRPORT AWS Lat: -31.33 Lon: 149.27 Height: 645.0 m
Data from the previous 72 hours. | See also: Recent months at Coonabarabran Airport
Date/Time
EDT
Temp
°C
App
Temp
°C
Dew
Point
°C
Rel
Hum
%
Delta-T
°C
Wind Press
QNH
hPa
Press
MSL
hPa
Rain since
9am
mm
Dir  Spd
km/h
Gust
km/h
Spd
kts
Gust
kts
15/11:30pm 20.7 16.0 -1.8 22 10.0 W 13 17 7 9 1014.9 1011.9 0.0
15/11:00pm 21.2 16.5 -2.0 21 10.3 W 13 19 7 10 1014.8 1011.8 0.0
15/10:30pm 21.3 17.2 -3.2 19 10.6 NW 9 11 5 6 1014.9 1011.9 0.0
15/10:00pm 21.8 17.7 -2.8 19 10.8 NW 9 11 5 6 1014.8 1011.8 0.0
15/09:30pm 21.8 17.7 -2.8 19 10.8 NW 9 11 5 6 1014.7 1011.7 0.0
15/09:00pm 21.7 17.2 -2.9 19 10.8 WNW 11 13 6 7 1014.5 1011.5 0.0
15/08:30pm 22.4 17.5 -3.1 18 11.2 WNW 13 17 7 9 1014.4 1011.4 0.0
15/08:00pm 22.7 17.8 -3.6 17 11.5 W 13 19 7 10 1014.2 1011.2 0.0
15/07:30pm 24.3 18.6 -4.0 15 12.4 W 17 22 9 12 1013.8 1010.8 0.0
15/07:00pm 25.5 19.8 -3.9 14 13.1 W 17 24 9 13 1013.4 1010.4 0.0
15/06:30pm 26.3 20.0 -4.3 13 13.6 WSW 20 32 11 17 1013.0 1010.0 0.0
15/06:00pm 26.9 19.4 -4.9 12 14.0 WSW 26 33 14 18 1012.7 1009.6 0.0
15/05:30pm 27.2 20.1 -4.6 12 14.1 WSW 24 33 13 18 1012.6 1009.5 0.0
15/05:00pm 27.4 19.6 -3.4 13 14.0 WSW 28 41 15 22 1012.4 1009.4 0.0
15/04:30pm 27.8 21.2 -3.1 13 14.2 WSW 22 33 12 18 1012.4 1009.4 0.0
15/04:00pm 28.1 21.8 -3.9 12 14.5 W 20 33 11 18 1012.7 1009.6 0.0
15/03:33pm 27.8 21.7 -2.1 14 14.0 WNW 20 50 11 27 1012.8 1009.8 0.0
15/03:30pm 27.5 21.7 -1.4 15 13.6 NW 19 28 10 15 1012.8 1009.8 0.0
15/03:03pm 27.8 21.2 -0.3 16 13.6 W 24 43 13 23 1013.1 1010.1 0.0
15/03:00pm 27.9 22.2 -1.1 15 13.8 WNW 19 35 10 19 1013.2 1010.2 0.0
15/02:30pm 27.6 21.1 -2.3 14 13.9 WSW 22 35 12 19 1013.5 1010.5 0.0
15/02:00pm 27.7 21.7 -1.3 15 13.7 WSW 20 35 11 19 1013.8 1010.8 0.0
15/01:30pm 26.9 21.3 -0.2 17 13.0 W 19 30 10 16 1014.4 1011.4 0.0
15/01:00pm 26.4 20.3 0.2 18 12.6 SW 22 37 12 20 1014.6 1011.6 0.0
15/12:30pm 25.5 19.9 0.2 19 12.1 W 19 30 10 16 1015.0 1012.0 0.0
15/12:00pm 24.8 20.5 1.0 21 11.5 W 13 28 7 15 1015.5 1012.6 0.0
15/11:30am 24.6 18.6 0.8 21 11.5 WNW 22 32 12 17 1016.0 1013.0 0.0
15/11:00am 24.6 17.9 1.5 22 11.3 WNW 26 35 14 19 1016.2 1013.2 0.0
15/10:30am 23.8 18.6 0.2 21 11.2 W 17 28 9 15 1016.3 1013.3 0.0
15/10:00am 23.1 18.0 0.9 23 10.6 W 17 28 9 15 1016.4 1013.4 0.0
15/09:30am 22.4 18.0 2.5 27 9.7 WSW 15 24 8 13 1016.4 1013.4 0.0
15/09:00am 20.7 17.0 2.5 30 8.8 SSW 11 22 6 12 1016.5 1013.5 0.0
15/08:30am 19.6 16.3 2.5 32 8.2 SW 9 15 5 8 1016.5 1013.5 0.0
15/08:00am 18.7 16.0 2.9 35 7.6 WSW 6 13 3 7 1016.4 1013.4 0.0
15/07:30am 17.8 14.5 2.5 36 7.2 W 9 15 5 8 1016.1 1013.1 0.0
15/07:00am 16.5 13.3 3.2 41 6.3 WNW 9 15 5 8 1015.9 1012.9 0.0
15/06:30am 15.2 11.9 2.7 43 5.8 WSW 9 15 5 8 1015.6 1012.7 0.0
15/06:00am 14.3 11.0 2.5 45 5.4 WSW 9 13 5 7 1015.4 1012.4 0.0
15/05:30am 14.5 10.8 2.4 44 5.6 WSW 11 13 6 7 1015.0 1012.0 0.0
15/05:00am 14.2 10.8 1.8 43 5.6 W 9 19 5 10 1014.7 1011.7 0.0
15/04:30am 14.5 11.1 1.8 42 5.8 W 9 15 5 8 1014.7 1011.7 0.0
15/04:00am 15.0 11.2 1.5 40 6.1 W 11 15 6 8 1014.9 1011.9 0.0
15/03:30am 15.1 11.2 1.3 39 6.2 WSW 11 15 6 8 1014.8 1011.8 0.0
15/03:00am 16.3 12.5 1.6 37 6.7 SW 11 17 6 9 1014.9 1011.9 0.0
15/02:30am 16.2 12.7 1.1 36 6.8 W 9 13 5 7 1014.9 1011.9 0.0
15/02:00am 16.6 13.1 1.1 35 7.0 WNW 9 11 5 6 1015.1 1012.1 0.0
15/01:30am 16.6 12.7 1.1 35 7.1 W 11 13 6 7 1015.4 1012.4 0.0
15/01:00am 16.9 13.4 1.0 34 7.2 WNW 9 13 5 7 1015.7 1012.8 0.0
15/12:30am 17.1 13.5 0.7 33 7.4 WNW 9 13 5 7 1016.1 1013.1 0.0
15/12:00am 17.2 13.2 0.8 33 7.4 WNW 11 13 6 7 1016.2 1013.2 0.0
 
Date/Time
EDT
Temp
°C
App
Temp
°C
Dew
Point
°C
Rel
Hum
%
Delta-T
°C
Wind Press
QNH
hPa
Press
MSL
hPa
Rain since
9am
mm
Dir  Spd
km/h
Gust
km/h
Spd
kts
Gust
kts
14/11:30pm 17.1 13.5 0.3 32 7.5 WNW 9 11 5 6 1016.3 1013.3 0.0
14/11:00pm 17.0 13.0 0.6 33 7.4 W 11 13 6 7 1016.4 1013.4 0.0
14/10:30pm 17.2 13.2 0.4 32 7.6 W 11 13 6 7 1016.5 1013.5 0.0
14/10:00pm 18.6 13.8 0.2 29 8.3 WSW 15 20 8 11 1016.3 1013.3 0.0
14/09:30pm 18.9 14.1 0.5 29 8.4 SW 15 19 8 10 1016.1 1013.1 0.0
14/09:00pm 19.0 14.3 0.6 29 8.4 WSW 15 19 8 10 1015.9 1012.9 0.0
14/08:30pm 19.4 14.6 0.4 28 8.7 SW 15 20 8 11 1015.6 1012.7 0.0
14/08:00pm 20.2 14.5 0.6 27 9.1 SW 20 28 11 15 1015.4 1012.4 0.0
14/07:30pm 20.7 14.9 0.0 25 9.5 SW 20 28 11 15 1015.4 1012.4 0.0
14/07:00pm 21.9 16.2 0.4 24 10.1 SW 20 28 11 15 1015.3 1012.3 0.0
14/06:30pm 22.6 16.8 -0.2 22 10.6 SW 20 26 11 14 1015.2 1012.2 0.0
14/06:00pm 23.1 17.3 0.2 22 10.8 WSW 20 32 11 17 1015.1 1012.1 0.0
14/05:30pm 23.8 18.2 0.2 21 11.2 SW 19 28 10 15 1015.1 1012.1 0.0
14/05:00pm 24.2 17.7 0.5 21 11.3 SSW 24 35 13 19 1015.3 1012.3 0.0
14/04:30pm 24.0 17.9 0.4 21 11.2 SW 22 32 12 17 1015.4 1012.4 0.0
14/04:00pm 24.0 17.9 0.4 21 11.2 SW 22 32 12 17 1015.5 1012.6 0.0
14/03:30pm 24.0 18.2 -0.3 20 11.4 SW 20 32 11 17 1015.9 1012.9 0.0
14/03:00pm 24.5 18.4 0.1 20 11.6 SSW 22 33 12 18 1016.0 1013.0 0.0
14/02:30pm 23.8 17.9 -0.5 20 11.3 SW 20 32 11 17 1016.2 1013.2 0.0
14/02:00pm 24.7 19.2 0.9 21 11.5 SW 19 28 10 15 1016.5 1013.5 0.0
14/01:30pm 23.4 18.6 -0.1 21 11.0 SSW 15 28 8 15 1016.9 1014.0 0.0
14/01:00pm 22.5 18.4 -0.3 22 10.6 NW 11 20 6 11 1017.3 1014.4 0.0
14/12:30pm 22.2 18.1 -0.5 22 10.5 WSW 11 28 6 15 1017.8 1014.8 0.0
14/12:00pm 21.7 17.7 0.3 24 10.0 S 11 19 6 10 1018.2 1015.2 0.0
14/11:30am 20.1 16.0 -0.5 25 9.3 ENE 11 20 6 11 1018.6 1015.7 0.0
14/11:00am 19.5 15.0 -0.5 26 9.0 SW 13 24 7 13 1018.9 1016.0 0.0
14/10:30am 19.0 13.8 0.1 28 8.6 S 17 28 9 15 1019.0 1016.1 0.0
14/10:00am 18.5 12.7 0.2 29 8.3 S 20 30 11 16 1019.2 1016.2 0.0
14/09:30am 17.2 11.4 -0.1 31 7.7 S 20 32 11 17 1019.0 1016.1 0.0
14/09:00am 16.6 10.7 -0.6 31 7.5 S 20 26 11 14 1018.9 1016.0 0.0
14/08:30am 16.4 10.5 -0.8 31 7.5 S 20 30 11 16 1018.5 1015.6 0.0
14/08:00am 15.1 9.1 -1.5 32 7.0 S 20 26 11 14 1018.1 1015.1 0.0
14/07:30am 14.0 8.5 -2.0 33 6.7 SSW 17 22 9 12 1018.1 1015.1 0.0
14/07:00am 12.7 7.6 -2.3 35 6.1 SSW 15 19 8 10 1017.7 1014.7 0.0
14/06:30am 11.9 7.1 -2.7 36 5.9 SW 13 17 7 9 1017.3 1014.4 0.0
14/06:00am 11.2 6.4 -2.9 37 5.6 SW 13 15 7 8 1017.1 1014.2 0.0
14/05:30am 10.5 6.4 -3.2 38 5.3 SW 9 17 5 9 1016.9 1014.0 0.0
14/05:00am 11.1 6.6 -3.4 36 5.7 SSW 11 17 6 9 1016.7 1013.7 0.0
14/04:30am 11.1 6.9 -3.8 35 5.8 SSW 9 15 5 8 1016.5 1013.5 0.0
14/04:00am 11.9 6.6 -3.4 34 6.0 SSW 15 20 8 11 1016.6 1013.6 0.0
14/03:30am 12.2 6.1 -4.0 32 6.3 SSW 19 26 10 14 1016.7 1013.7 0.0
14/03:00am 11.9 6.5 -4.2 32 6.2 SSW 15 20 8 11 1016.8 1013.8 0.0
14/02:30am 12.3 6.5 -4.3 31 6.4 SSW 17 24 9 13 1017.1 1014.2 0.0
14/02:00am 12.4 7.0 -4.7 30 6.6 SSW 15 24 8 13 1017.3 1014.4 0.0
14/01:30am 13.0 6.8 -4.6 29 6.8 SSW 19 32 10 17 1017.3 1014.4 0.0
14/01:00am 13.2 6.8 -5.4 27 7.1 SSW 20 30 11 16 1017.6 1014.6 0.0
14/12:30am 13.7 7.3 -4.9 27 7.2 SSW 20 30 11 16 1017.8 1014.8 0.0
14/12:00am 13.8 7.6 -4.8 27 7.2 SSW 19 28 10 15 1017.8 1014.8 0.0
 
Date/Time
EDT
Temp
°C
App
Temp
°C
Dew
Point
°C
Rel
Hum
%
Delta-T
°C
Wind Press
QNH
hPa
Press
MSL
hPa
Rain since
9am
mm
Dir  Spd
km/h
Gust
km/h
Spd
kts
Gust
kts
13/11:30pm 14.1 8.6 -5.1 26 7.5 SSW 15 24 8 13 1018.1 1015.1 0.0
13/11:00pm 14.4 8.9 -5.3 25 7.6 SSW 15 22 8 12 1018.1 1015.1 0.0
13/10:30pm 14.5 9.3 -5.8 24 7.8 SSW 13 20 7 11 1018.1 1015.1 0.0
13/10:00pm 15.2 9.3 -5.8 23 8.1 SSW 17 24 9 13 1018.0 1015.0 0.0
13/09:30pm 15.8 8.9 -5.8 22 8.4 SSW 22 33 12 18 1017.5 1014.5 0.0
13/09:00pm 16.1 9.2 -6.2 21 8.6 SW 22 35 12 19 1017.1 1014.2 0.0
13/08:30pm 16.4 9.1 -6.6 20 8.9 SW 24 33 13 18 1016.7 1013.7 0.0
13/08:00pm 16.8 9.8 -6.9 19 9.1 SW 22 32 12 17 1016.5 1013.5 0.0
13/07:30pm 17.4 10.1 -6.4 19 9.3 SW 24 33 13 18 1016.1 1013.1 0.0
13/07:00pm 18.4 11.0 -7.8 16 10.1 SW 24 35 13 19 1015.6 1012.7 0.0
13/06:30pm 19.1 10.8 -9.0 14 10.6 SW 28 37 15 20 1015.4 1012.4 0.0
13/06:00pm 19.6 11.7 -8.6 14 10.8 SW 26 35 14 19 1015.2 1012.2 0.0
13/05:30pm 20.3 13.1 -9.0 13 11.2 SW 22 33 12 18 1015.0 1012.0 0.0
13/05:00pm 20.2 13.0 -9.1 13 11.2 WSW 22 32 12 17 1015.1 1012.1 0.0
13/04:30pm 20.9 14.4 -8.5 13 11.5 SW 19 30 10 16 1015.2 1012.2 0.0
13/04:00pm 20.1 11.9 -7.3 15 10.8 SW 28 43 15 23 1015.5 1012.6 0.0
13/03:30pm 21.0 13.7 -6.6 15 11.2 SW 24 41 13 22 1015.6 1012.7 0.0
13/03:00pm 21.0 14.1 -6.6 15 11.2 SSW 22 37 12 20 1015.9 1012.9 0.0
13/02:30pm 21.3 14.6 -8.2 13 11.6 SW 20 39 11 21 1016.3 1013.3 0.0
13/02:00pm 21.1 13.2 -8.4 13 11.5 SW 26 35 14 19 1016.5 1013.5 0.0
13/01:30pm 20.3 13.3 -7.1 15 10.9 SW 22 37 12 20 1016.8 1013.8 0.0
13/01:00pm 19.7 12.8 -6.0 17 10.4 SW 22 33 12 18 1016.9 1014.0 0.0
13/12:30pm 20.2 13.7 -5.6 17 10.6 SSW 20 44 11 24 1016.9 1014.0 0.0
13/12:00pm 18.3 11.2 -8.7 15 10.2 S 22 33 12 18 1017.2 1014.3 0.0
13/11:30am 18.4 11.7 -7.8 16 10.1 SSW 20 32 11 17 1017.1 1014.2 0.0
13/11:00am 17.4 10.1 -6.4 19 9.3 SSW 24 33 13 18 1017.2 1014.3 0.0
13/10:30am 17.6 10.3 -6.3 19 9.4 SSW 24 37 13 20 1017.0 1014.1 0.0
13/10:00am 16.0 8.8 -5.7 22 8.5 S 24 35 13 19 1017.1 1014.2 0.0
13/09:30am 15.3 8.6 -4.6 25 7.9 S 22 35 12 19 1017.0 1014.1 0.0
13/09:00am 14.0 6.5 -4.2 28 7.2 SSW 26 39 14 21 1016.9 1014.0 0.0
13/08:30am 13.8 6.1 -3.0 31 6.8 S 28 37 15 20 1016.7 1013.7 0.0
13/08:00am 12.6 4.9 -2.8 34 6.2 S 28 33 15 18 1016.4 1013.4 0.0
13/07:30am 12.0 4.3 -3.0 35 6.0 SSW 28 37 15 20 1016.1 1013.1 0.0
13/07:00am 11.2 3.1 -3.3 36 5.7 SSW 30 44 16 24 1015.7 1012.8 0.0
13/06:30am 10.8 3.8 -3.7 36 5.6 SSW 24 35 13 19 1015.5 1012.6 0.0
13/06:00am 10.9 3.5 -3.9 35 5.7 SSW 26 39 14 21 1015.0 1012.0 0.0
13/05:30am 11.1 4.4 -4.1 34 5.9 SSW 22 33 12 18 1014.6 1011.6 0.0
13/05:00am 11.7 5.6 -4.0 33 6.1 S 19 28 10 15 1014.0 1011.0 0.0
13/04:30am 12.0 4.2 -4.2 32 6.3 S 28 37 15 20 1013.6 1010.6 0.0
13/04:00am 12.3 4.8 -4.8 30 6.6 S 26 39 14 21 1013.3 1010.3 0.0
13/03:30am 12.9 6.2 -4.2 30 6.7 S 22 33 12 18 1013.4 1010.4 0.0
13/03:00am 13.6 6.1 -4.1 29 7.0 S 26 39 14 21 1013.1 1010.1 0.0
13/02:30am 13.9 6.4 -4.3 28 7.2 S 26 35 14 19 1013.1 1010.1 0.0
13/02:00am 14.6 7.2 -3.7 28 7.4 S 26 35 14 19 1013.3 1010.3 0.0
13/01:30am 15.5 7.7 -3.4 27 7.7 S 28 44 15 24 1013.2 1010.2 0.0
13/01:01am 16.2 8.2 -2.3 28 7.8 S 30 48 16 26 1013.0 1010.0 0.0
13/01:00am 16.2 8.2 -2.3 28 7.8 S 30 43 16 23 1013.0 1010.0 0.0
13/12:30am 17.1 8.3 -1.5 28 8.1 S 35 50 19 27 1013.0 1010.0 0.0
13/12:20am 17.4 9.5 -1.3 28 8.2 SSW 30 48 16 26 1012.9 1009.9 0.0
13/12:00am 17.8 9.5 -1.4 27 8.4 SSW 32 46 17 25 1012.9 1009.9 0.0
 
Date/Time
EDT
Temp
°C
App
Temp
°C
Dew
Point
°C
Rel
Hum
%
Delta-T
°C
Wind Press
QNH
hPa
Press
MSL
hPa
Rain since
9am
mm
Dir  Spd
km/h
Gust
km/h
Spd
kts
Gust
kts
12/11:55pm 18.1 10.6 -1.7 26 8.6 SSW 28 46 15 25 1012.8 1009.8 0.0

Other formats

Comma delimited format used in spreadsheet applications
http://www.bom.gov.au/fwo/IDN60801/IDN60801.95728.axf

JavaScript Object Notation format (JSON) in row-major order
http://www.bom.gov.au/fwo/IDN60801/IDN60801.95728.json

Data quality

Most of these data are generated automatically and are frequently updated. Quality checks on data are not normally performed. It is possible for incorrect values to appear. Refer to information at About Latest Weather Observations and please check the disclaimer before using these data.